Time;durP1;ratioP1;P1;durP2;ratioP2;P2;SDS_P1;SDS_P2;PMS_P1;PMS_P2;Temp;Humidity;BMP_temperature;BMP_pressure;BME280_temperature;BME280_humidity;BME280_pressure;Samples;Min_cycle;Max_cycle;Signal;HPM_P1;HPM_P2
2023/12/26 00:00:19;;;;;;;3.10;1.90;;;9.70;99.90;;;;;;5032959;28;20053;-74
2023/12/26 00:02:45;;;;;;;2.80;1.37;;;9.70;99.90;;;;;;5019585;28;20394;-75
2023/12/26 00:05:10;;;;;;;2.30;1.30;;;9.70;99.90;;;;;;5030669;28;20576;-75
2023/12/26 00:07:36;;;;;;;1.33;0.97;;;9.70;99.90;;;;;;5040725;28;20459;-75
2023/12/26 00:10:02;;;;;;;1.47;1.10;;;9.70;99.90;;;;;;5034774;28;20321;-74
2023/12/26 00:12:27;;;;;;;1.33;1.00;;;9.70;99.90;;;;;;5015958;28;20049;-74
2023/12/26 00:14:53;;;;;;;1.67;0.97;;;9.70;99.90;;;;;;5019738;28;20073;-75
2023/12/26 00:17:19;;;;;;;3.63;1.40;;;9.80;99.90;;;;;;5015802;28;20049;-75
2023/12/26 00:19:46;;;;;;;2.63;1.20;;;9.80;99.90;;;;;;5040861;28;20056;-75
2023/12/26 00:22:12;;;;;;;2.10;1.50;;;9.70;99.90;;;;;;5038075;28;21115;-73
2023/12/26 00:24:38;;;;;;;1.40;1.23;;;9.80;99.90;;;;;;5038615;28;20068;-75
2023/12/26 00:27:04;;;;;;;1.60;1.03;;;9.80;99.90;;;;;;5032415;28;20045;-75
2023/12/26 00:29:29;;;;;;;2.10;1.13;;;9.80;99.90;;;;;;5038457;28;20056;-75
2023/12/26 00:31:55;;;;;;;1.80;1.33;;;9.70;99.90;;;;;;5012674;28;20097;-75
2023/12/26 00:34:21;;;;;;;1.00;0.90;;;9.80;99.90;;;;;;5031963;28;20121;-74
2023/12/26 00:36:46;;;;;;;3.97;1.00;;;9.80;99.90;;;;;;5034860;28;20109;-75
2023/12/26 00:39:14;;;;;;;1.10;0.87;;;9.80;99.90;;;;;;5013454;28;20045;-74
2023/12/26 00:41:40;;;;;;;2.40;1.00;;;9.80;99.90;;;;;;5036522;28;20148;-74
2023/12/26 00:44:05;;;;;;;1.33;0.80;;;9.80;99.90;;;;;;5037469;28;20049;-75
2023/12/26 00:46:32;;;;;;;1.73;0.90;;;9.80;99.90;;;;;;5032454;28;20040;-75
2023/12/26 00:48:58;;;;;;;0.90;0.90;;;9.80;99.90;;;;;;5038817;28;20504;-74
2023/12/26 00:51:25;;;;;;;1.60;1.00;;;9.90;99.90;;;;;;5004368;28;20068;-74
2023/12/26 00:53:50;;;;;;;1.97;1.00;;;9.90;99.90;;;;;;5016510;28;20068;-74
2023/12/26 00:56:16;;;;;;;1.93;1.00;;;9.90;99.90;;;;;;5031393;28;20041;-75
2023/12/26 00:58:43;;;;;;;2.37;0.93;;;9.90;99.90;;;;;;5039421;28;20041;-75
2023/12/26 01:01:09;;;;;;;1.77;0.90;;;9.90;99.90;;;;;;5035333;28;20053;-75
2023/12/26 01:03:35;;;;;;;1.63;1.13;;;9.90;99.90;;;;;;5034260;28;20124;-75
2023/12/26 01:06:01;;;;;;;1.57;1.00;;;10.00;99.90;;;;;;5038953;28;20370;-75
2023/12/26 01:08:27;;;;;;;1.57;0.80;;;10.00;99.90;;;;;;5020585;28;20064;-75
2023/12/26 01:10:53;;;;;;;0.90;0.90;;;10.00;99.90;;;;;;5037086;28;20045;-75
2023/12/26 01:13:18;;;;;;;1.13;0.90;;;10.00;99.90;;;;;;5037579;28;20605;-75
2023/12/26 01:15:44;;;;;;;0.90;0.70;;;10.00;99.90;;;;;;5036075;28;20057;-74
2023/12/26 01:18:10;;;;;;;2.30;0.90;;;10.00;99.90;;;;;;5029586;28;20951;-75
2023/12/26 01:20:36;;;;;;;1.47;0.60;;;10.00;99.90;;;;;;5031477;28;20087;-75
2023/12/26 01:23:02;;;;;;;1.60;0.70;;;10.00;99.90;;;;;;5017838;28;20748;-75
2023/12/26 01:25:29;;;;;;;1.03;0.60;;;10.00;99.90;;;;;;5035395;28;20045;-75
2023/12/26 01:27:54;;;;;;;1.87;1.17;;;10.00;99.90;;;;;;5033458;28;20128;-75
2023/12/26 01:30:20;;;;;;;2.10;0.83;;;10.00;99.90;;;;;;5033733;28;20072;-75
2023/12/26 01:32:46;;;;;;;1.97;0.87;;;10.10;99.90;;;;;;5032576;28;20049;-75
2023/12/26 01:35:12;;;;;;;1.70;0.80;;;10.00;99.90;;;;;;5034004;28;20084;-78
2023/12/26 01:37:37;;;;;;;1.40;0.60;;;10.00;99.90;;;;;;5032320;28;20040;-78
2023/12/26 01:40:04;;;;;;;1.20;0.70;;;10.00;99.90;;;;;;4990749;28;20037;-74
2023/12/26 01:42:31;;;;;;;2.47;0.87;;;10.00;99.90;;;;;;5031426;28;20055;-75
2023/12/26 01:44:57;;;;;;;2.27;0.70;;;10.00;99.90;;;;;;5030443;28;20115;-74
2023/12/26 01:47:23;;;;;;;2.87;0.90;;;10.00;99.90;;;;;;5032143;28;20049;-75
2023/12/26 01:49:49;;;;;;;1.77;0.70;;;10.00;99.90;;;;;;5035019;28;20357;-75
2023/12/26 01:52:19;;;;;;;4.67;1.13;;;10.00;99.90;;;;;;5015538;28;20042;-80
2023/12/26 01:54:45;;;;;;;4.33;1.30;;;10.00;99.90;;;;;;5013582;28;20535;-75
2023/12/26 01:57:10;;;;;;;6.07;1.10;;;10.00;99.90;;;;;;5013765;28;20041;-75
2023/12/26 01:59:37;;;;;;;7.00;1.47;;;10.00;99.90;;;;;;5032933;28;20084;-75
2023/12/26 02:02:07;;;;;;;6.00;1.20;;;10.00;99.90;;;;;;5037974;28;20060;-75
2023/12/26 02:04:33;;;;;;;6.27;1.20;;;10.00;99.90;;;;;;5030799;28;20049;-76
2023/12/26 02:07:00;;;;;;;5.37;1.40;;;9.90;99.90;;;;;;5036997;28;20045;-75
2023/12/26 02:09:26;;;;;;;4.27;1.20;;;10.00;99.90;;;;;;5024768;28;20045;-75
2023/12/26 02:11:53;;;;;;;5.87;1.80;;;9.90;99.90;;;;;;5036864;28;20104;-75
2023/12/26 02:14:19;;;;;;;10.10;1.73;;;9.90;99.90;;;;;;5030145;28;20472;-75
2023/12/26 02:16:47;;;;;;;4.33;1.37;;;9.90;99.90;;;;;;5036502;28;20057;-75
2023/12/26 02:19:14;;;;;;;8.40;1.90;;;9.90;99.90;;;;;;5035889;28;20117;-75
2023/12/26 02:21:40;;;;;;;7.43;2.00;;;9.90;99.90;;;;;;5035195;28;20045;-75
2023/12/26 02:24:05;;;;;;;4.67;1.63;;;9.80;99.90;;;;;;5033198;28;20052;-75
2023/12/26 02:26:37;;;;;;;5.73;1.67;;;9.80;99.90;;;;;;5035209;28;20591;-75
2023/12/26 02:29:05;;;;;;;;;;;9.80;99.90;;;;;;5031642;28;20049;-75
2023/12/26 02:31:32;;;;;;;10.30;1.73;;;9.80;99.90;;;;;;5034764;28;19928;-73
2023/12/26 02:33:57;;;;;;;6.70;1.80;;;9.80;99.90;;;;;;5033332;28;20073;-75
2023/12/26 02:36:24;;;;;;;8.77;1.87;;;9.80;99.90;;;;;;5037658;28;20071;-75
2023/12/26 02:38:50;;;;;;;6.33;1.97;;;9.80;99.90;;;;;;5039831;28;20050;-75
2023/12/26 02:41:16;;;;;;;8.83;1.53;;;9.80;99.90;;;;;;5038414;28;20061;-75
2023/12/26 02:43:42;;;;;;;7.00;1.97;;;9.80;99.90;;;;;;5041704;28;20053;-75
2023/12/26 02:46:07;;;;;;;10.13;2.20;;;9.80;99.90;;;;;;5016464;28;20155;-75
2023/12/26 02:48:33;;;;;;;9.40;2.27;;;9.80;99.90;;;;;;5039816;28;20049;-75
2023/12/26 02:50:59;;;;;;;13.30;2.10;;;9.80;99.90;;;;;;5036085;28;20057;-76
2023/12/26 02:53:24;;;;;;;11.23;2.20;;;9.80;99.90;;;;;;5038873;28;20033;-74
2023/12/26 02:55:53;;;;;;;7.27;1.60;;;9.80;99.90;;;;;;5020792;28;20508;-75
2023/12/26 02:58:20;;;;;;;10.43;2.30;;;9.80;99.90;;;;;;5038647;28;20488;-75
2023/12/26 03:00:46;;;;;;;6.90;1.73;;;9.70;99.90;;;;;;5019570;28;20049;-75
2023/12/26 03:03:12;;;;;;;9.73;2.00;;;9.70;99.90;;;;;;5001922;28;20044;-75
2023/12/26 03:05:37;;;;;;;9.10;2.10;;;9.80;99.90;;;;;;5039625;28;20134;-75
2023/12/26 03:08:03;;;;;;;7.37;1.90;;;9.70;99.90;;;;;;5034588;28;20038;-74
2023/12/26 03:10:29;;;;;;;7.77;1.97;;;9.70;99.90;;;;;;5037132;28;20033;-75
2023/12/26 03:12:55;;;;;;;7.23;2.03;;;9.70;99.90;;;;;;5035477;28;20132;-75
2023/12/26 03:15:21;;;;;;;11.23;2.37;;;9.70;99.90;;;;;;5035605;28;20481;-75
2023/12/26 03:17:46;;;;;;;12.40;2.33;;;9.70;99.90;;;;;;5017234;28;20050;-75
2023/12/26 03:20:12;;;;;;;9.43;1.90;;;9.70;99.90;;;;;;5037321;28;20116;-76
2023/12/26 03:22:40;;;;;;;8.30;2.83;;;9.60;99.90;;;;;;5040027;28;20665;-75
2023/12/26 03:25:06;;;;;;;8.17;2.17;;;9.60;99.90;;;;;;5035820;28;20093;-75
2023/12/26 03:27:32;;;;;;;9.93;2.50;;;9.60;99.90;;;;;;5040248;28;20045;-76
2023/12/26 03:29:58;;;;;;;9.13;2.50;;;9.60;99.90;;;;;;5032595;28;20175;-75
2023/12/26 03:32:23;;;;;;;9.60;2.10;;;9.60;99.90;;;;;;5035426;28;20047;-76
2023/12/26 03:34:49;;;;;;;7.67;2.07;;;9.60;99.90;;;;;;5033831;28;20046;-75
2023/12/26 03:37:15;;;;;;;7.47;2.17;;;9.60;99.90;;;;;;5035686;28;20099;-75
2023/12/26 03:39:41;;;;;;;5.03;1.93;;;9.60;99.90;;;;;;5034136;28;20053;-75
2023/12/26 03:42:07;;;;;;;5.10;1.53;;;9.60;99.90;;;;;;5039483;28;20048;-75
2023/12/26 03:44:33;;;;;;;8.10;1.67;;;9.50;99.90;;;;;;5032067;28;20045;-75
2023/12/26 03:46:59;;;;;;;4.67;1.57;;;9.40;99.90;;;;;;5033560;28;20076;-75
2023/12/26 03:49:24;;;;;;;8.07;1.67;;;9.30;99.90;;;;;;5015725;28;20053;-75
2023/12/26 03:51:50;;;;;;;4.23;1.50;;;9.20;99.90;;;;;;5037504;28;20155;-75
2023/12/26 03:54:16;;;;;;;3.70;1.40;;;9.10;99.90;;;;;;5031257;28;20043;-75
2023/12/26 03:56:42;;;;;;;6.37;1.43;;;9.00;99.90;;;;;;5037482;28;20045;-75
2023/12/26 03:59:07;;;;;;;6.37;1.60;;;8.90;99.90;;;;;;5037420;28;20045;-75
2023/12/26 04:01:33;;;;;;;4.97;1.60;;;8.80;99.90;;;;;;5039197;28;20041;-74
2023/12/26 04:03:59;;;;;;;6.57;2.87;;;8.70;99.90;;;;;;5035595;28;20262;-75
2023/12/26 04:06:25;;;;;;;7.30;1.57;;;8.70;99.90;;;;;;5038713;28;20056;-75
2023/12/26 04:08:51;;;;;;;6.97;1.70;;;8.70;99.90;;;;;;5037829;28;20092;-75
2023/12/26 04:11:16;;;;;;;6.73;1.47;;;8.60;99.90;;;;;;5038076;28;20567;-74
2023/12/26 04:13:42;;;;;;;5.60;1.50;;;8.60;99.90;;;;;;5036230;28;20455;-73
2023/12/26 04:16:08;;;;;;;7.73;1.97;;;8.60;99.90;;;;;;5038667;28;20073;-75
2023/12/26 04:18:34;;;;;;;9.67;2.00;;;8.60;99.90;;;;;;5036053;28;20045;-75
2023/12/26 04:20:59;;;;;;;11.33;2.23;;;8.50;99.90;;;;;;5033624;28;20049;-75
2023/12/26 04:23:25;;;;;;;12.90;2.20;;;8.50;99.90;;;;;;5035758;28;20068;-75
2023/12/26 04:25:51;;;;;;;10.43;3.13;;;8.50;99.90;;;;;;5035237;28;20493;-75
2023/12/26 04:28:17;;;;;;;9.37;2.37;;;8.40;99.90;;;;;;5039054;28;20110;-74
2023/12/26 04:30:42;;;;;;;10.43;2.30;;;8.40;99.90;;;;;;5030667;28;20041;-75
2023/12/26 04:33:10;;;;;;;10.30;2.30;;;8.30;99.90;;;;;;5032647;28;20580;-75
2023/12/26 04:35:36;;;;;;;10.20;2.43;;;8.30;99.90;;;;;;5032378;28;20053;-75
2023/12/26 04:38:02;;;;;;;8.90;2.13;;;8.30;99.90;;;;;;5033635;28;20041;-75
2023/12/26 04:40:29;;;;;;;12.63;2.90;;;8.20;99.90;;;;;;5035326;28;20083;-75
2023/12/26 04:42:54;;;;;;;7.70;2.37;;;8.20;99.90;;;;;;5039451;28;20073;-75
2023/12/26 04:45:20;;;;;;;11.30;2.90;;;8.20;99.90;;;;;;5029657;28;20053;-75
2023/12/26 04:47:46;;;;;;;11.77;2.27;;;8.20;99.90;;;;;;5016858;28;20049;-75
2023/12/26 04:50:12;;;;;;;10.27;2.00;;;8.10;99.90;;;;;;5017021;28;20127;-75
2023/12/26 04:52:37;;;;;;;8.53;2.57;;;8.20;99.90;;;;;;5036994;28;20053;-74
2023/12/26 04:55:03;;;;;;;13.37;3.10;;;8.10;99.90;;;;;;5015894;28;20041;-75
2023/12/26 04:57:29;;;;;;;14.47;3.10;;;8.10;99.90;;;;;;5036922;28;20038;-75
2023/12/26 04:59:55;;;;;;;9.27;3.03;;;8.10;99.90;;;;;;5037960;28;20095;-75
2023/12/26 05:02:21;;;;;;;10.37;2.90;;;8.10;99.90;;;;;;5022839;28;20053;-76
2023/12/26 05:04:47;;;;;;;9.37;2.57;;;8.10;99.90;;;;;;5036660;28;20053;-75
2023/12/26 05:07:13;;;;;;;13.23;2.43;;;8.10;99.90;;;;;;5032538;28;20037;-75
2023/12/26 05:09:38;;;;;;;8.97;2.50;;;8.10;99.90;;;;;;5016772;28;20414;-75
2023/12/26 05:12:04;;;;;;;10.00;2.70;;;8.10;99.90;;;;;;5043647;28;20038;-76
2023/12/26 05:14:30;;;;;;;9.77;2.47;;;8.00;99.90;;;;;;5049345;28;20460;-76
2023/12/26 05:16:56;;;;;;;10.27;2.80;;;8.10;99.90;;;;;;5017319;28;20068;-76
2023/12/26 05:19:22;;;;;;;8.00;2.47;;;8.00;99.90;;;;;;5046025;28;20075;-74
2023/12/26 05:21:48;;;;;;;14.70;2.83;;;8.10;99.90;;;;;;5035584;28;20566;-75
2023/12/26 05:24:13;;;;;;;12.73;2.90;;;8.10;99.90;;;;;;5045018;28;20041;-75
2023/12/26 05:26:43;;;;;;;9.83;2.53;;;8.10;99.90;;;;;;5026532;28;20611;-75
2023/12/26 05:29:10;;;;;;;9.40;2.87;;;8.00;99.90;;;;;;5041316;28;20103;-75
2023/12/26 05:31:38;;;;;;;12.53;2.47;;;8.00;99.90;;;;;;5024181;28;20045;-76
2023/12/26 05:34:05;;;;;;;13.00;2.77;;;8.00;99.90;;;;;;5005370;28;20052;-75
2023/12/26 05:36:31;;;;;;;11.30;2.60;;;8.00;99.90;;;;;;5044522;28;20049;-75
2023/12/26 05:38:58;;;;;;;13.07;2.80;;;8.10;99.90;;;;;;5048820;28;20041;-75
2023/12/26 05:41:25;;;;;;;15.37;2.80;;;8.10;99.90;;;;;;5041717;28;20045;-75
2023/12/26 05:43:51;;;;;;;10.90;2.83;;;8.10;99.90;;;;;;5049528;28;20047;-75
2023/12/26 05:46:19;;;;;;;9.67;2.80;;;8.10;99.90;;;;;;5044892;28;20521;-75
2023/12/26 05:48:45;;;;;;;11.40;3.43;;;8.20;99.90;;;;;;5045747;28;20056;-75
2023/12/26 05:51:10;;;;;;;10.97;2.73;;;8.20;99.90;;;;;;5043203;28;20112;-75
2023/12/26 05:53:36;;;;;;;12.77;2.47;;;8.30;99.90;;;;;;5013865;28;20123;-75
2023/12/26 05:56:02;;;;;;;10.43;2.87;;;8.30;99.90;;;;;;5044517;28;20049;-75
2023/12/26 05:58:28;;;;;;;9.47;2.40;;;8.30;99.90;;;;;;5029363;28;20072;-74
2023/12/26 06:00:54;;;;;;;16.33;2.80;;;8.30;99.90;;;;;;5036996;28;20049;-75
2023/12/26 06:03:20;;;;;;;12.33;2.63;;;8.30;99.90;;;;;;5041795;28;20041;-75
2023/12/26 06:05:47;;;;;;;10.17;2.50;;;8.40;99.90;;;;;;5047983;28;20433;-75
2023/12/26 06:08:14;;;;;;;10.90;2.77;;;8.40;99.90;;;;;;5041110;28;20049;-75
2023/12/26 06:10:39;;;;;;;10.70;2.47;;;8.40;99.90;;;;;;5044265;28;20107;-75
2023/12/26 06:13:05;;;;;;;10.27;2.57;;;8.40;99.90;;;;;;5053875;28;20045;-74
2023/12/26 06:15:31;;;;;;;10.33;2.40;;;8.50;99.90;;;;;;5044164;28;20053;-75
2023/12/26 06:17:59;;;;;;;8.37;2.30;;;8.60;99.90;;;;;;5045871;28;20449;-75
2023/12/26 06:20:26;;;;;;;8.63;2.37;;;8.60;99.90;;;;;;5051752;28;20045;-76
2023/12/26 06:22:55;;;;;;;10.00;2.20;;;8.50;99.90;;;;;;5040873;28;20084;-76
2023/12/26 06:25:21;;;;;;;9.83;2.43;;;8.60;99.90;;;;;;5046812;28;20056;-76
2023/12/26 06:27:47;;;;;;;10.10;2.20;;;8.60;99.90;;;;;;5045787;28;20141;-76
2023/12/26 06:30:13;;;;;;;12.17;2.10;;;8.60;99.90;;;;;;5042540;28;20080;-76
2023/12/26 06:32:39;;;;;;;8.40;2.17;;;8.70;99.90;;;;;;5031365;28;20029;-75
2023/12/26 06:35:05;;;;;;;10.57;2.40;;;8.60;99.90;;;;;;5018172;28;20060;-76
2023/12/26 06:37:31;;;;;;;10.83;2.97;;;8.70;99.90;;;;;;5034759;28;20498;-76
2023/12/26 06:39:56;;;;;;;9.60;2.13;;;8.70;99.90;;;;;;5048235;28;20475;-75
2023/12/26 06:42:22;;;;;;;11.50;2.90;;;8.70;99.90;;;;;;5035501;28;20040;-75
2023/12/26 06:44:48;;;;;;;11.33;2.30;;;8.70;99.90;;;;;;5033684;28;20050;-75
2023/12/26 06:47:14;;;;;;;10.20;2.53;;;8.70;99.90;;;;;;5024549;28;20070;-75
2023/12/26 06:49:44;;;;;;;10.43;2.60;;;8.80;99.90;;;;;;5042876;28;20048;-75
2023/12/26 06:52:14;;;;;;;10.23;2.63;;;8.80;99.90;;;;;;5047865;28;20435;-75
2023/12/26 06:54:40;;;;;;;10.27;2.30;;;8.80;99.90;;;;;;5050212;28;20332;-76
2023/12/26 06:57:15;;;;;;;12.37;2.47;;;8.90;99.90;;;;;;5051655;28;20103;-76
2023/12/26 06:59:45;;;;;;;11.97;2.13;;;8.90;99.90;;;;;;5044227;28;20091;-76
2023/12/26 07:02:11;;;;;;;9.60;2.53;;;8.80;99.90;;;;;;5013786;28;20191;-76
2023/12/26 07:04:36;;;;;;;12.10;2.50;;;8.80;99.90;;;;;;5026965;28;20305;-75
2023/12/26 07:07:02;;;;;;;12.80;2.77;;;8.90;99.90;;;;;;5051019;28;20064;-75
2023/12/26 07:09:28;;;;;;;10.53;2.70;;;8.90;99.90;;;;;;5042190;28;20496;-75
2023/12/26 07:11:53;;;;;;;8.00;2.50;;;8.90;99.90;;;;;;5044943;28;20411;-75
2023/12/26 07:14:19;;;;;;;10.33;2.40;;;8.90;99.90;;;;;;5010000;28;20065;-75
2023/12/26 07:16:45;;;;;;;12.07;2.70;;;8.90;99.90;;;;;;5045209;28;20057;-76
2023/12/26 07:19:11;;;;;;;13.03;3.30;;;8.80;99.90;;;;;;5043604;28;20095;-76
2023/12/26 07:21:36;;;;;;;11.63;3.00;;;8.80;99.90;;;;;;5024393;28;20046;-76
2023/12/26 07:24:02;;;;;;;11.77;3.00;;;8.80;99.90;;;;;;5015887;28;20057;-76
2023/12/26 07:26:28;;;;;;;13.90;2.60;;;8.90;99.90;;;;;;5047650;28;20100;-76
2023/12/26 07:28:54;;;;;;;9.63;3.17;;;8.80;99.90;;;;;;5033472;28;20121;-76
2023/12/26 07:31:21;;;;;;;13.17;3.00;;;8.80;99.90;;;;;;5033765;28;20688;-76
2023/12/26 07:33:47;;;;;;;11.93;2.77;;;8.80;99.90;;;;;;5051316;28;20041;-74
2023/12/26 07:36:14;;;;;;;11.87;2.87;;;8.80;99.90;;;;;;5019218;28;20041;-75
2023/12/26 07:38:40;;;;;;;11.00;3.03;;;8.80;99.90;;;;;;5034131;28;20063;-75
2023/12/26 07:41:06;;;;;;;14.57;3.27;;;8.80;99.90;;;;;;5034099;28;20045;-75
2023/12/26 07:43:32;;;;;;;13.03;2.70;;;8.80;99.90;;;;;;5034227;28;20056;-74
2023/12/26 07:45:58;;;;;;;11.43;2.70;;;8.80;99.90;;;;;;5033736;28;20054;-75
2023/12/26 07:48:23;;;;;;;10.23;2.57;;;8.80;99.90;;;;;;5039439;28;20049;-75
2023/12/26 07:50:49;;;;;;;15.93;3.30;;;8.80;99.90;;;;;;5037718;28;20061;-75
2023/12/26 07:53:15;;;;;;;11.57;2.90;;;8.80;99.90;;;;;;5033983;28;20040;-74
2023/12/26 07:55:41;;;;;;;13.73;3.00;;;8.80;99.90;;;;;;5039262;28;20096;-74
2023/12/26 07:58:08;;;;;;;14.70;2.80;;;8.80;99.90;;;;;;5038873;28;20484;-74
2023/12/26 08:00:34;;;;;;;13.80;2.90;;;8.80;99.90;;;;;;5035199;28;20050;-74
2023/12/26 08:03:00;;;;;;;12.07;3.00;;;8.80;99.90;;;;;;5031123;28;20572;-74
2023/12/26 08:05:26;;;;;;;13.23;3.37;;;8.80;99.90;;;;;;5029144;28;20047;-74
2023/12/26 08:07:51;;;;;;;16.27;2.97;;;8.80;99.90;;;;;;5037095;28;20052;-77
2023/12/26 08:10:17;;;;;;;9.90;2.87;;;8.70;99.90;;;;;;5001362;28;20476;-74
2023/12/26 08:12:44;;;;;;;8.80;3.10;;;8.80;99.90;;;;;;5013700;28;20068;-74
2023/12/26 08:15:11;;;;;;;12.77;3.40;;;8.80;99.90;;;;;;5030542;28;20095;-73
2023/12/26 08:17:37;;;;;;;12.80;3.20;;;8.80;99.90;;;;;;5036947;28;20158;-74
2023/12/26 08:20:06;;;;;;;13.73;2.77;;;8.80;99.90;;;;;;5041910;28;20076;-76
2023/12/26 08:22:31;;;;;;;10.10;2.37;;;8.80;99.90;;;;;;5011264;28;20045;-77
2023/12/26 08:24:57;;;;;;;15.10;3.27;;;8.80;99.90;;;;;;5043505;28;20045;-75
2023/12/26 08:27:23;;;;;;;13.87;3.17;;;8.80;99.90;;;;;;5041946;28;20041;-71
2023/12/26 08:29:49;;;;;;;13.03;3.70;;;8.80;99.90;;;;;;5038888;28;20042;-71
2023/12/26 08:32:15;;;;;;;13.13;3.10;;;8.70;99.90;;;;;;5045788;28;20041;-71
2023/12/26 08:34:44;;;;;;;10.97;3.00;;;8.70;99.90;;;;;;5026827;28;20055;-72
2023/12/26 08:37:12;;;;;;;12.20;3.23;;;8.70;99.90;;;;;;5035224;28;20057;-71
2023/12/26 08:39:38;;;;;;;16.27;3.00;;;8.80;99.90;;;;;;5015406;28;20053;-70
2023/12/26 08:42:06;;;;;;;15.17;2.90;;;8.80;99.90;;;;;;5045692;28;20037;-72
2023/12/26 08:44:31;;;;;;;16.80;3.27;;;8.80;99.90;;;;;;5034285;28;20125;-72
2023/12/26 08:47:02;;;;;;;16.43;3.63;;;8.80;99.90;;;;;;5046763;28;20591;-72
2023/12/26 08:49:27;;;;;;;14.37;3.23;;;8.80;99.90;;;;;;5022185;28;20147;-71
2023/12/26 08:51:53;;;;;;;14.73;3.10;;;8.80;99.90;;;;;;5027650;28;20413;-71
2023/12/26 08:54:20;;;;;;;9.90;2.73;;;8.90;99.90;;;;;;5037314;28;20045;-71
2023/12/26 08:56:46;;;;;;;11.37;3.60;;;8.90;99.90;;;;;;5048582;28;20064;-71
2023/12/26 08:59:12;;;;;;;14.90;3.40;;;8.90;99.90;;;;;;5037838;28;20034;-71
2023/12/26 09:01:38;;;;;;;12.90;3.03;;;8.80;99.90;;;;;;5052523;28;20052;-71
2023/12/26 09:04:04;;;;;;;12.47;3.47;;;8.90;99.90;;;;;;5035154;28;20049;-71
2023/12/26 09:06:30;;;;;;;12.57;2.93;;;8.90;99.90;;;;;;5037906;28;20052;-71
2023/12/26 09:08:55;;;;;;;16.73;3.90;;;8.90;99.90;;;;;;5034159;28;20057;-71
2023/12/26 09:11:21;;;;;;;12.53;2.90;;;9.00;99.90;;;;;;5049948;28;20051;-71
2023/12/26 09:13:47;;;;;;;14.73;3.40;;;9.00;99.90;;;;;;5024537;28;20328;-71
2023/12/26 09:16:13;;;;;;;15.50;3.43;;;8.90;99.90;;;;;;5026183;28;20042;-71
2023/12/26 09:18:42;;;;;;;11.30;2.27;;;8.90;99.90;;;;;;5029598;28;20041;-71
2023/12/26 09:21:08;;;;;;;12.47;3.03;;;8.90;99.90;;;;;;5021018;28;20077;-71
2023/12/26 09:23:33;;;;;;;12.77;2.80;;;9.00;99.90;;;;;;5028320;28;20056;-71
2023/12/26 09:26:06;;;;;;;12.97;2.90;;;9.00;99.90;;;;;;5022813;28;20050;-72
2023/12/26 09:28:32;;;;;;;12.10;3.50;;;9.00;99.90;;;;;;5010789;28;20054;-70
2023/12/26 09:30:58;;;;;;;14.03;3.40;;;9.00;99.90;;;;;;5009427;28;20056;-71
2023/12/26 09:33:25;;;;;;;13.03;3.03;;;9.00;99.90;;;;;;5017944;28;20069;-71
2023/12/26 09:35:51;;;;;;;12.47;3.47;;;9.00;99.90;;;;;;5018033;28;20060;-71
2023/12/26 09:38:17;;;;;;;13.90;3.30;;;9.10;99.90;;;;;;5017054;28;20153;-72
2023/12/26 09:40:43;;;;;;;11.73;3.00;;;9.00;99.90;;;;;;5013976;28;20077;-72
2023/12/26 09:43:08;;;;;;;16.23;2.97;;;9.00;99.90;;;;;;5024451;28;20041;-72
2023/12/26 09:45:34;;;;;;;16.57;3.77;;;9.00;99.90;;;;;;5028402;28;20041;-71
2023/12/26 09:48:00;;;;;;;10.87;3.17;;;9.10;99.90;;;;;;5015766;28;20849;-78
2023/12/26 09:50:26;;;;;;;15.20;3.57;;;9.00;99.90;;;;;;5014167;28;20094;-77
2023/12/26 09:52:56;;;;;;;14.43;3.00;;;9.10;99.90;;;;;;5020793;28;20060;-77
2023/12/26 09:55:22;;;;;;;9.30;2.83;;;9.10;99.90;;;;;;5020375;28;20137;-77
2023/12/26 09:57:48;;;;;;;13.00;3.50;;;9.20;99.90;;;;;;5010178;28;20106;-77
2023/12/26 10:00:14;;;;;;;14.20;3.50;;;9.10;99.90;;;;;;5016512;28;20097;-77
2023/12/26 10:02:43;;;;;;;10.77;3.27;;;9.20;99.90;;;;;;5004832;28;20074;-77
2023/12/26 10:05:10;;;;;;;12.70;3.50;;;9.20;99.90;;;;;;5015380;28;20092;-76
2023/12/26 10:07:36;;;;;;;15.87;3.10;;;9.20;99.90;;;;;;5014896;28;20045;-77
2023/12/26 10:10:02;;;;;;;13.70;3.40;;;9.20;99.90;;;;;;5028692;28;20117;-77
2023/12/26 10:12:32;;;;;;;13.97;2.90;;;9.20;99.90;;;;;;5019590;28;20042;-77
2023/12/26 10:14:59;;;;;;;13.77;3.30;;;9.30;99.90;;;;;;5045508;28;20061;-77
2023/12/26 10:17:25;;;;;;;11.87;3.50;;;9.40;99.90;;;;;;5037332;28;20076;-77
2023/12/26 10:19:57;;;;;;;12.23;2.73;;;9.50;99.90;;;;;;5025231;28;20076;-74
2023/12/26 10:22:24;;;;;;;14.43;3.17;;;9.50;99.90;;;;;;5013843;28;20049;-74
2023/12/26 10:24:50;;;;;;;13.40;4.00;;;9.50;99.90;;;;;;5039570;28;20084;-75
2023/12/26 10:27:16;;;;;;;14.00;3.20;;;9.50;99.90;;;;;;5000566;28;20037;-74
2023/12/26 10:29:49;;;;;;;14.87;3.80;;;9.50;99.90;;;;;;5035399;28;20034;-75
2023/12/26 10:32:15;;;;;;;9.70;2.90;;;9.40;99.90;;;;;;5040987;28;20097;-75
2023/12/26 10:34:40;;;;;;;14.60;3.53;;;9.30;99.90;;;;;;5036218;28;20079;-75
2023/12/26 10:37:08;;;;;;;13.70;2.93;;;9.30;99.90;;;;;;5042652;28;20053;-75
2023/12/26 10:39:34;;;;;;;10.60;3.10;;;9.30;99.90;;;;;;5045684;28;20045;-75
2023/12/26 10:42:02;;;;;;;12.83;3.27;;;9.30;99.90;;;;;;5018224;28;20089;-75
2023/12/26 10:45:06;;;;;;;15.87;3.30;;;9.30;99.90;;;;;;5034030;28;20041;-75
2023/12/26 10:47:33;;;;;;;10.67;2.93;;;9.30;99.90;;;;;;5024808;28;20111;-75
2023/12/26 10:50:01;;;;;;;16.97;3.70;;;9.20;99.90;;;;;;5035593;28;20053;-75
2023/12/26 10:52:28;;;;;;;14.97;3.00;;;9.20;99.90;;;;;;5027805;28;20046;-74
2023/12/26 10:54:56;;;;;;;18.03;3.80;;;9.20;99.90;;;;;;5047296;28;20051;-75
2023/12/26 10:57:23;;;;;;;19.80;3.60;;;9.20;99.90;;;;;;5038223;28;20120;-75
2023/12/26 13:52:12;;;;;;;8.40;2.28;;;9.10;99.90;;;;;;5039157;28;20104;-73
2023/12/26 13:55:15;;;;;;;7.83;1.80;;;9.10;99.90;;;;;;5030251;28;20055;-74
2023/12/26 13:58:19;;;;;;;7.70;1.60;;;9.00;99.90;;;;;;5030657;28;20069;-75
2023/12/26 14:01:22;;;;;;;7.30;2.17;;;8.90;99.90;;;;;;5041163;28;20076;-74
2023/12/26 14:04:26;;;;;;;5.77;1.93;;;8.90;99.90;;;;;;5028154;28;20053;-74
2023/12/26 14:07:31;;;;;;;7.53;1.90;;;8.80;99.90;;;;;;5031354;28;20061;-74
2023/12/26 14:10:34;;;;;;;6.50;1.73;;;8.80;99.90;;;;;;5041108;28;20045;-74
2023/12/26 14:13:38;;;;;;;9.70;2.23;;;8.90;99.90;;;;;;5042251;28;20053;-74
2023/12/26 14:16:40;;;;;;;10.03;1.93;;;8.90;99.90;;;;;;5037130;28;20548;-74
2023/12/26 14:19:44;;;;;;;10.70;2.00;;;8.90;99.90;;;;;;5045981;28;20524;-74
2023/12/26 14:22:47;;;;;;;7.57;1.60;;;8.90;99.90;;;;;;5027450;28;20504;-74
2023/12/26 14:25:50;;;;;;;5.33;1.70;;;8.90;99.90;;;;;;5009864;28;20056;-74
2023/12/26 14:28:53;;;;;;;6.70;1.60;;;9.00;99.90;;;;;;5034229;28;20085;-74
2023/12/26 14:31:56;;;;;;;3.93;1.33;;;9.00;99.90;;;;;;5045619;28;20145;-74
2023/12/26 14:35:01;;;;;;;5.27;1.33;;;9.00;99.90;;;;;;5051923;28;20056;-74
2023/12/26 14:38:04;;;;;;;7.07;1.10;;;8.90;99.90;;;;;;5049682;28;20057;-73
2023/12/26 14:41:07;;;;;;;3.63;1.17;;;8.90;99.90;;;;;;5028221;28;20048;-74
2023/12/26 14:44:11;;;;;;;9.57;1.83;;;8.80;99.90;;;;;;5030024;28;20050;-74
2023/12/26 14:47:15;;;;;;;5.63;1.30;;;8.70;99.90;;;;;;5046202;28;20396;-73
2023/12/26 14:50:18;;;;;;;3.23;1.00;;;8.60;99.90;;;;;;5033617;28;20845;-73
2023/12/26 14:53:21;;;;;;;6.83;1.30;;;8.60;99.90;;;;;;5051169;28;20076;-73
2023/12/26 14:56:24;;;;;;;3.73;1.00;;;8.40;99.90;;;;;;5013972;28;20079;-73
2023/12/26 14:59:27;;;;;;;4.20;1.03;;;8.30;99.90;;;;;;5040913;28;20053;-73
2023/12/26 15:02:01;;;;;;;10.20;1.30;;;8.20;99.90;;;;;;5032189;28;20089;-74
2023/12/26 15:04:28;;;;;;;4.03;1.07;;;8.10;99.90;;;;;;5038959;28;20119;-74
2023/12/26 15:06:58;;;;;;;5.23;1.27;;;8.10;99.90;;;;;;5042900;28;21048;-74
2023/12/26 15:09:24;;;;;;;6.80;1.30;;;8.00;99.90;;;;;;5033954;28;20052;-72
2023/12/26 15:11:50;;;;;;;4.73;0.90;;;8.00;99.90;;;;;;5036452;28;20140;-74
2023/12/26 15:14:17;;;;;;;5.07;1.20;;;7.90;99.90;;;;;;5035338;28;20489;-73
2023/12/26 15:16:42;;;;;;;7.30;1.10;;;8.00;99.90;;;;;;5038993;28;20069;-73
2023/12/26 15:19:08;;;;;;;3.57;1.20;;;7.90;99.90;;;;;;5040594;28;20064;-80
2023/12/26 15:21:42;;;;;;;3.90;1.27;;;7.80;99.90;;;;;;5022748;28;20037;-73
2023/12/26 15:24:09;;;;;;;5.97;1.30;;;7.80;99.90;;;;;;5039688;28;20057;-73
2023/12/26 15:26:35;;;;;;;3.87;1.00;;;7.70;99.90;;;;;;5037559;28;20186;-73
2023/12/26 15:29:01;;;;;;;6.13;1.23;;;7.70;99.90;;;;;;5034807;28;20045;-72
2023/12/26 15:31:26;;;;;;;3.43;1.20;;;7.60;99.90;;;;;;5040488;28;20053;-72
2023/12/26 15:33:52;;;;;;;7.57;1.30;;;7.60;99.90;;;;;;5041926;28;20079;-73
2023/12/26 15:36:23;;;;;;;4.50;1.13;;;7.60;99.90;;;;;;5045218;28;20523;-73
2023/12/26 15:38:50;;;;;;;7.25;1.13;;;7.60;99.90;;;;;;5009840;28;20052;-73
2023/12/26 15:41:18;;;;;;;6.60;1.10;;;7.50;99.90;;;;;;5045655;28;20515;-73
2023/12/26 15:43:44;;;;;;;4.77;1.50;;;7.50;99.90;;;;;;5044752;28;20393;-73
2023/12/26 15:46:21;;;;;;;3.27;1.10;;;7.40;99.90;;;;;;5040253;28;20052;-73
2023/12/26 15:48:47;;;;;;;5.53;1.53;;;7.40;99.90;;;;;;5044859;28;20045;-73
2023/12/26 15:51:16;;;;;;;6.43;1.40;;;7.40;99.90;;;;;;5041966;28;20427;-73